Jacksonville, Maryland
Current Conditions -  °F | °C
As of 10:36 PM on Friday 24 Oct 2014 (Local Time) from KMTN Reporting Station
Clear Clear  
Wind Chill: 12°   Ceiling: Unl
Heat Index: 12°   Visibility: 10mi
Dew Point:   Wind: 0mph
Humidity: 62%   Direction: NA
Pressure: 29.94"   Gusts: NA
Location:  39.5027°N, 76.5721°W
Report Text: KMTN 250236Z AUTO 00000KT 10SM CLR 12/05 A2994 RMK AO2
Loading
Personal Weather Stations






























Interactive Weather Map
Tropical Storm Tracking
New forecast layout! Learn more

10-Day Weather Forecast

Advertisements
Track Severe Weather on mobile